createdAt,value
2019-05-12T00:00:10.565Z,0.00
2019-05-12T00:01:18.758Z,0.00
2019-05-12T00:02:12.638Z,0.00
2019-05-12T00:06:14.172Z,0.00
2019-05-12T00:07:14.158Z,0.00
2019-05-12T00:08:14.166Z,0.00
2019-05-12T00:09:14.159Z,0.00
2019-05-12T00:10:14.169Z,0.00
2019-05-12T00:11:14.165Z,0.00
2019-05-12T00:12:14.178Z,0.00
2019-05-12T00:13:14.173Z,0.00
2019-05-12T00:14:14.185Z,0.00
2019-05-12T00:15:14.191Z,0.00
2019-05-12T00:16:14.188Z,0.00
2019-05-12T00:17:14.193Z,0.00
2019-05-12T00:18:14.254Z,0.00
2019-05-12T00:19:14.199Z,0.00
2019-05-12T00:20:14.205Z,0.00
2019-05-12T00:21:14.214Z,0.00
2019-05-12T00:22:14.217Z,0.00
2019-05-12T00:23:24.929Z,0.00
2019-05-12T00:24:14.229Z,0.00
2019-05-12T00:25:14.231Z,0.00
2019-05-12T00:26:14.238Z,0.00
2019-05-12T00:27:14.239Z,0.00
2019-05-12T00:28:14.232Z,0.00
2019-05-12T00:29:14.241Z,0.00
2019-05-12T00:30:14.255Z,0.00
2019-05-12T00:31:14.250Z,0.00
2019-05-12T00:32:14.254Z,0.00
2019-05-12T00:33:14.271Z,0.00
2019-05-12T00:34:14.270Z,0.00
2019-05-12T00:35:14.274Z,0.00
2019-05-12T00:36:14.266Z,0.00
2019-05-12T00:37:14.273Z,0.00
2019-05-12T00:38:14.284Z,0.00
2019-05-12T00:39:14.289Z,0.00
2019-05-12T00:40:14.286Z,0.00
2019-05-12T00:41:14.287Z,0.00
2019-05-12T00:42:14.295Z,0.00
2019-05-12T00:43:14.299Z,0.00
2019-05-12T00:44:14.305Z,0.00
2019-05-12T00:45:14.319Z,0.00
2019-05-12T00:46:14.315Z,0.00
2019-05-12T00:47:14.314Z,0.00
2019-05-12T00:48:14.321Z,0.00
2019-05-12T00:49:14.365Z,0.00
2019-05-12T00:50:14.320Z,0.00
2019-05-12T00:51:14.339Z,0.00
2019-05-12T00:52:14.334Z,0.00
2019-05-12T00:53:14.347Z,0.00
2019-05-12T00:54:14.345Z,0.00
2019-05-12T00:55:14.353Z,0.00
2019-05-12T00:56:14.354Z,0.00
2019-05-12T00:57:14.353Z,0.00
2019-05-12T00:58:14.358Z,0.00
2019-05-12T00:59:14.371Z,0.00
2019-05-12T01:00:14.374Z,0.00
2019-05-12T01:01:14.377Z,0.00
2019-05-12T01:02:14.379Z,0.00
2019-05-12T01:03:14.382Z,0.00
2019-05-12T01:04:14.382Z,0.00
2019-05-12T01:05:14.395Z,0.00
2019-05-12T01:06:14.391Z,0.00
2019-05-12T01:07:14.397Z,0.00
2019-05-12T01:08:14.408Z,0.00
2019-05-12T01:09:14.424Z,0.00
2019-05-12T01:10:14.419Z,0.00
2019-05-12T01:11:14.419Z,0.00
2019-05-12T01:12:14.416Z,0.00
2019-05-12T01:13:14.430Z,0.00
2019-05-12T01:14:14.425Z,0.00
2019-05-12T01:15:14.436Z,0.00
2019-05-12T01:16:14.429Z,0.00
2019-05-12T01:17:14.438Z,0.00
2019-05-12T01:18:14.430Z,0.00
2019-05-12T01:19:14.441Z,0.00
2019-05-12T01:20:14.451Z,0.00
2019-05-12T01:21:14.451Z,0.00
2019-05-12T01:22:14.446Z,0.00
2019-05-12T01:23:14.459Z,0.00
2019-05-12T01:24:14.459Z,0.00
2019-05-12T01:25:14.470Z,0.00
2019-05-12T01:26:14.480Z,0.00
2019-05-12T01:27:14.477Z,0.00
2019-05-12T01:28:14.475Z,0.00
2019-05-12T01:29:14.479Z,0.00
2019-05-12T01:30:14.495Z,0.00
2019-05-12T01:31:14.488Z,0.00
2019-05-12T01:32:14.490Z,0.00
2019-05-12T09:09:03.455Z,7364.00
2019-05-12T09:10:04.163Z,7484.00
2019-05-12T09:11:03.600Z,7640.00
2019-05-12T09:12:03.608Z,8120.00
2019-05-12T09:13:04.068Z,23488.00
2019-05-12T09:14:03.579Z,24032.00
2019-05-12T09:15:04.748Z,9320.00
2019-05-12T09:16:04.341Z,9492.00
2019-05-12T09:17:07.286Z,18080.00
2019-05-12T09:18:04.680Z,11840.00
2019-05-12T09:19:04.946Z,16488.00
2019-05-12T09:20:08.143Z,11800.00
2019-05-12T09:21:03.820Z,18368.00
2019-05-12T09:22:05.497Z,22976.00
2019-05-12T09:23:04.946Z,25696.00
2019-05-12T09:24:04.159Z,25568.00
2019-05-12T09:25:06.140Z,25024.00
2019-05-12T09:26:04.141Z,24576.00
2019-05-12T09:27:06.913Z,24160.00
2019-05-12T09:28:03.837Z,24512.00
2019-05-12T09:29:03.503Z,24160.00
2019-05-12T09:30:07.587Z,24096.00
2019-05-12T09:32:05.328Z,23200.00
2019-05-12T09:33:04.117Z,23136.00
2019-05-12T09:34:11.390Z,22560.00
2019-05-12T09:35:03.959Z,22976.00
2019-05-12T09:36:04.329Z,23936.00
2019-05-12T09:37:04.020Z,23552.00
2019-05-12T09:38:05.894Z,23776.00
2019-05-12T09:39:05.463Z,24512.00
2019-05-12T09:40:04.583Z,24896.00
2019-05-12T09:41:05.236Z,24608.00
2019-05-12T09:42:03.816Z,24928.00
2019-05-12T09:43:08.719Z,25280.00
2019-05-12T09:44:04.571Z,26336.00
2019-05-12T09:45:08.085Z,26880.00
2019-05-12T09:46:04.230Z,23904.00
2019-05-12T09:47:04.073Z,17920.00
2019-05-12T09:48:04.926Z,27680.00
2019-05-12T09:49:04.082Z,28736.00
2019-05-12T09:50:04.334Z,10968.00
2019-05-12T09:51:05.110Z,26176.00
2019-05-12T09:52:03.726Z,28480.00
2019-05-12T09:53:09.290Z,28000.00
2019-05-12T09:54:05.236Z,27904.00
2019-05-12T09:55:04.263Z,28288.00
2019-05-12T09:56:04.443Z,28160.00
2019-05-12T09:57:04.414Z,12344.00
2019-05-12T09:58:04.071Z,27936.00
2019-05-12T09:59:17.444Z,26656.00
2019-05-12T10:00:04.458Z,27072.00
2019-05-12T10:01:03.655Z,26752.00
2019-05-12T10:02:03.781Z,26432.00
2019-05-12T10:03:04.813Z,26112.00
2019-05-12T10:04:03.613Z,26016.00
2019-05-12T10:05:03.931Z,26080.00
2019-05-12T10:06:03.805Z,16076.00
2019-05-12T10:07:03.903Z,22944.00
2019-05-12T10:08:04.512Z,8352.00
2019-05-12T10:09:03.599Z,29024.00
2019-05-12T10:10:03.838Z,9728.00
2019-05-12T10:11:03.803Z,19712.00
2019-05-12T10:12:05.543Z,29120.00
2019-05-12T10:13:04.790Z,28512.00
2019-05-12T10:14:06.536Z,28576.00
2019-05-12T10:15:04.262Z,28864.00
2019-05-12T10:16:07.375Z,8820.00
2019-05-12T10:17:03.796Z,23712.00
2019-05-12T10:18:10.964Z,29120.00
2019-05-12T10:19:04.071Z,29120.00
2019-05-12T10:20:03.714Z,28736.00
2019-05-12T10:21:03.743Z,12372.00
2019-05-12T10:22:03.756Z,12652.00
2019-05-12T10:23:04.563Z,32192.00
2019-05-12T10:24:05.086Z,11416.00
2019-05-12T10:25:04.081Z,10704.00
2019-05-12T10:26:09.428Z,9964.00
2019-05-12T10:27:04.003Z,9100.00
2019-05-12T10:28:11.313Z,8236.00
2019-05-12T10:29:16.450Z,7936.00
2019-05-12T10:30:11.977Z,8036.00
2019-05-12T10:31:04.232Z,8636.00
2019-05-12T10:32:04.131Z,9172.00
2019-05-12T10:33:04.126Z,9420.00
2019-05-12T10:34:03.941Z,10136.00
2019-05-12T10:35:03.958Z,30464.00
2019-05-12T10:36:06.700Z,29920.00
2019-05-12T10:37:04.203Z,30016.00
2019-05-12T10:38:06.303Z,28960.00
2019-05-12T10:39:04.309Z,28896.00
2019-05-12T10:40:04.014Z,29792.00
2019-05-12T10:41:04.399Z,30016.00
2019-05-12T10:42:04.063Z,29248.00
2019-05-12T10:43:04.779Z,28608.00
2019-05-12T10:44:04.171Z,29856.00
2019-05-12T10:45:04.389Z,30400.00
2019-05-12T10:46:04.317Z,28864.00
2019-05-12T10:47:04.567Z,28992.00
2019-05-12T10:48:04.151Z,30368.00
2019-05-12T10:49:04.175Z,27456.00
2019-05-12T10:50:04.205Z,28640.00
2019-05-12T10:51:04.192Z,28288.00
2019-05-12T10:52:04.210Z,18432.00
2019-05-12T10:53:04.762Z,11144.00
2019-05-12T10:54:12.100Z,11460.00
2019-05-12T10:55:04.506Z,14884.00
2019-05-12T10:56:04.271Z,28416.00
2019-05-12T10:57:04.934Z,13988.00
2019-05-12T10:58:07.145Z,12468.00
2019-05-12T10:59:04.402Z,11608.00
2019-05-12T11:00:04.506Z,11168.00
2019-05-12T11:01:08.411Z,10572.00
2019-05-12T11:02:04.369Z,11380.00
2019-05-12T11:03:10.798Z,11816.00
2019-05-12T11:04:04.398Z,30080.00
2019-05-12T11:05:04.419Z,28256.00
2019-05-12T11:06:07.527Z,30304.00
2019-05-12T11:07:04.764Z,16152.00
2019-05-12T11:08:09.453Z,11192.00
2019-05-12T11:09:04.738Z,11440.00
2019-05-12T11:10:15.366Z,12420.00
2019-05-12T11:11:04.539Z,9892.00
2019-05-12T11:12:04.525Z,11584.00
2019-05-12T11:13:08.172Z,29568.00
2019-05-12T11:14:04.548Z,28928.00
2019-05-12T11:15:07.052Z,28096.00
2019-05-12T11:16:04.578Z,27200.00
2019-05-12T11:17:07.910Z,25952.00
2019-05-12T11:18:04.612Z,26368.00
2019-05-12T11:19:08.751Z,26144.00
2019-05-12T11:20:04.658Z,26112.00
2019-05-12T11:21:04.668Z,26176.00
2019-05-12T11:22:04.705Z,25312.00
2019-05-12T11:23:04.704Z,25184.00
2019-05-12T11:24:04.719Z,25856.00
2019-05-12T11:25:04.731Z,25056.00
2019-05-12T11:26:04.736Z,25280.00
2019-05-12T11:27:04.755Z,24928.00
2019-05-12T11:28:04.791Z,24544.00
2019-05-12T11:29:04.795Z,24224.00
2019-05-12T11:30:04.805Z,24544.00
2019-05-12T11:31:04.816Z,24832.00
2019-05-12T11:32:04.855Z,24576.00
2019-05-12T11:33:04.860Z,24256.00
2019-05-12T11:34:05.074Z,24640.00
2019-05-12T11:35:04.900Z,24704.00
2019-05-12T11:36:04.903Z,25312.00
2019-05-12T11:37:04.920Z,25600.00
2019-05-12T11:38:04.938Z,8304.00
2019-05-12T11:39:04.955Z,8932.00
2019-05-12T11:40:04.987Z,9808.00
2019-05-12T11:41:10.045Z,25248.00
2019-05-12T11:42:05.027Z,15752.00
2019-05-12T11:43:05.044Z,26720.00
2019-05-12T11:44:05.051Z,26720.00
2019-05-12T11:45:05.053Z,21376.00
2019-05-12T11:46:05.073Z,10564.00
2019-05-12T11:47:05.093Z,9796.00
2019-05-12T11:48:09.504Z,25728.00
2019-05-12T11:49:05.121Z,25536.00
2019-05-12T11:50:09.701Z,22688.00
2019-05-12T11:51:05.145Z,24384.00
2019-05-12T11:52:07.649Z,10760.00
2019-05-12T11:53:05.174Z,9728.00
2019-05-12T11:54:09.096Z,9356.00
2019-05-12T11:55:05.220Z,9176.00
2019-05-12T11:56:07.794Z,9124.00
2019-05-12T11:57:05.243Z,8992.00
2019-05-12T11:58:09.802Z,24800.00
2019-05-12T11:59:05.270Z,17088.00
2019-05-12T12:00:05.519Z,10660.00
2019-05-12T12:01:08.308Z,10152.00
2019-05-12T12:02:05.337Z,9872.00
2019-05-12T12:03:12.702Z,24896.00
2019-05-12T12:04:05.353Z,24576.00
2019-05-12T12:05:05.360Z,12532.00
2019-05-12T12:06:05.384Z,14500.00
2019-05-12T12:07:05.395Z,10736.00
2019-05-12T12:08:05.414Z,12764.00
2019-05-12T12:10:05.440Z,8652.00
2019-05-12T12:11:10.488Z,7904.00
2019-05-12T12:12:07.202Z,7384.00
2019-05-12T12:13:05.500Z,7092.00
2019-05-12T12:14:08.855Z,6784.00
2019-05-12T12:15:05.523Z,6528.00
2019-05-12T12:16:07.046Z,6348.00
2019-05-12T12:17:05.549Z,6236.00
2019-05-12T12:18:12.947Z,6196.00
2019-05-12T12:19:05.981Z,6100.00
2019-05-12T12:20:05.579Z,6056.00
2019-05-12T12:21:07.640Z,5980.00
2019-05-12T12:22:05.616Z,5888.00
2019-05-12T12:23:10.512Z,5724.00
2019-05-12T12:24:05.640Z,5596.00
2019-05-12T12:25:10.833Z,5376.00
2019-05-12T12:26:05.663Z,5176.00
2019-05-12T12:27:05.667Z,5176.00
2019-05-12T12:28:05.686Z,5128.00
2019-05-12T12:29:05.711Z,5192.00
2019-05-12T12:30:15.760Z,5272.00
2019-05-12T12:31:07.775Z,5408.00
2019-05-12T12:32:09.940Z,5608.00
2019-05-12T12:33:05.750Z,5720.00
2019-05-12T12:34:05.763Z,5940.00
2019-05-12T12:35:09.020Z,6188.00
2019-05-12T12:36:05.781Z,6436.00
2019-05-12T12:37:05.811Z,6716.00
2019-05-12T12:39:05.813Z,7328.00
2019-05-12T12:40:05.840Z,7460.00
2019-05-12T12:41:05.835Z,7776.00
2019-05-12T12:42:05.854Z,8000.00
2019-05-12T12:43:05.864Z,8252.00
2019-05-12T12:44:05.866Z,8312.00
2019-05-12T12:45:05.881Z,8764.00
2019-05-12T12:46:10.630Z,8700.00
2019-05-12T12:47:05.906Z,8528.00
2019-05-12T12:48:05.943Z,12088.00
2019-05-12T12:49:10.127Z,14176.00
2019-05-12T12:50:05.933Z,23520.00
2019-05-12T12:51:05.951Z,23872.00
2019-05-12T12:52:05.961Z,23968.00
2019-05-12T12:53:05.974Z,22656.00
2019-05-12T12:54:05.982Z,21696.00
2019-05-12T12:55:08.423Z,21472.00
2019-05-12T12:56:06.033Z,20800.00
2019-05-12T12:57:09.817Z,20608.00
2019-05-12T12:58:06.033Z,20512.00
2019-05-12T12:59:10.398Z,20256.00
2019-05-12T13:00:06.065Z,20192.00
2019-05-12T13:01:06.084Z,20320.00
2019-05-12T13:02:09.181Z,20416.00
2019-05-12T13:03:06.136Z,20384.00
2019-05-12T13:04:06.536Z,18240.00
2019-05-12T13:05:06.148Z,17728.00
2019-05-12T13:06:06.181Z,20576.00
2019-05-12T13:07:06.176Z,18080.00
2019-05-12T13:08:06.197Z,12828.00
2019-05-12T13:09:07.956Z,11384.00
2019-05-12T13:10:09.537Z,11924.00
2019-05-12T13:11:06.242Z,12288.00
2019-05-12T13:12:15.747Z,14112.00
2019-05-12T13:13:06.277Z,13812.00
2019-05-12T13:14:06.297Z,21184.00
2019-05-12T13:15:06.299Z,18368.00
2019-05-12T13:16:06.338Z,13272.00
2019-05-12T13:17:06.423Z,21248.00
2019-05-12T13:18:08.940Z,21824.00
2019-05-12T13:19:12.137Z,21472.00
2019-05-12T13:20:06.398Z,18016.00
2019-05-12T13:21:06.404Z,20512.00
2019-05-12T13:22:09.105Z,20416.00
2019-05-12T13:23:06.431Z,19488.00
2019-05-12T13:24:06.467Z,12632.00
2019-05-12T13:25:08.582Z,9168.00
2019-05-12T13:26:06.483Z,8360.00
2019-05-12T13:27:06.499Z,7964.00
2019-05-12T13:28:10.779Z,7488.00
2019-05-12T13:29:06.544Z,6968.00
2019-05-12T13:30:18.557Z,6520.00
2019-05-12T13:31:11.717Z,6092.00
2019-05-12T13:32:06.593Z,5640.00
2019-05-12T13:33:08.830Z,5244.00
2019-05-12T13:34:06.619Z,4856.00
2019-05-12T13:35:09.771Z,4556.00
2019-05-12T13:36:06.636Z,4260.00
2019-05-12T13:37:09.252Z,3852.00
2019-05-12T13:38:06.660Z,3508.00
2019-05-12T13:39:11.445Z,3216.00
2019-05-12T13:40:06.715Z,3024.00
2019-05-12T13:41:09.613Z,2948.00
2019-05-12T13:42:06.719Z,2896.00
2019-05-12T13:43:09.215Z,2924.00
2019-05-12T13:44:06.744Z,3088.00
2019-05-12T13:45:06.756Z,3124.00
2019-05-12T13:46:06.774Z,3296.00
2019-05-12T13:47:06.771Z,3524.00
2019-05-12T13:48:09.738Z,3784.00
2019-05-12T13:49:06.796Z,3964.00
2019-05-12T13:50:06.824Z,4268.00
2019-05-12T13:51:12.361Z,4540.00
2019-05-12T13:52:06.835Z,4876.00
2019-05-12T13:53:10.029Z,5188.00
2019-05-12T13:54:06.858Z,5660.00
2019-05-12T13:55:07.791Z,5972.00
2019-05-12T13:56:06.886Z,6476.00
2019-05-12T13:57:12.261Z,7676.00
2019-05-12T13:58:06.894Z,7796.00
2019-05-12T13:59:06.915Z,8352.00
2019-05-12T14:00:10.730Z,8984.00
2019-05-12T14:01:19.095Z,9772.00
2019-05-12T14:02:06.940Z,13400.00
2019-05-12T14:03:09.545Z,13628.00
2019-05-12T14:04:06.967Z,11640.00
2019-05-12T14:05:11.298Z,19712.00
2019-05-12T14:06:06.994Z,19808.00
2019-05-12T14:07:09.349Z,19552.00
2019-05-12T14:08:07.010Z,20000.00
2019-05-12T14:09:07.029Z,19808.00
2019-05-12T14:10:07.170Z,17920.00
2019-05-12T14:11:07.051Z,19104.00
2019-05-12T14:12:07.077Z,17216.00
2019-05-12T14:13:07.089Z,14364.00
2019-05-12T14:14:11.330Z,12260.00
2019-05-12T14:15:07.117Z,14064.00
2019-05-12T14:16:07.149Z,14268.00
2019-05-12T14:17:07.145Z,15168.00
2019-05-12T14:18:10.289Z,15488.00
2019-05-12T14:19:07.184Z,14584.00
2019-05-12T14:20:09.197Z,17344.00
2019-05-12T14:21:07.210Z,17408.00
2019-05-12T14:22:07.222Z,17248.00
2019-05-12T14:23:08.122Z,17280.00
2019-05-12T14:24:07.254Z,17696.00
2019-05-12T14:25:07.305Z,10904.00
2019-05-12T14:26:09.208Z,11420.00
2019-05-12T14:27:07.294Z,11628.00
2019-05-12T14:28:09.415Z,10136.00
2019-05-12T14:29:07.335Z,9720.00
2019-05-12T14:30:10.349Z,10116.00
2019-05-12T14:31:07.368Z,10024.00
2019-05-12T14:32:12.185Z,9828.00
2019-05-12T14:33:07.390Z,16288.00
2019-05-12T14:34:10.503Z,15648.00
2019-05-12T14:35:07.424Z,15140.00
2019-05-12T14:36:07.440Z,14468.00
2019-05-12T14:37:10.444Z,14620.00
2019-05-12T14:38:07.472Z,14540.00
2019-05-12T14:39:10.172Z,14832.00
2019-05-12T14:40:07.520Z,14544.00
2019-05-12T14:41:11.587Z,14372.00
2019-05-12T14:42:07.548Z,14540.00
2019-05-12T14:43:10.305Z,14248.00
2019-05-12T14:44:07.569Z,14356.00
2019-05-12T14:45:07.593Z,14748.00
2019-05-12T14:46:10.365Z,14208.00
2019-05-12T14:47:07.607Z,14120.00
2019-05-12T14:48:09.239Z,11952.00
2019-05-12T14:49:07.648Z,9388.00
2019-05-12T14:50:07.658Z,8000.00
2019-05-12T14:51:07.674Z,8028.00
2019-05-12T14:52:07.699Z,8260.00
2019-05-12T14:53:07.706Z,11820.00
2019-05-12T14:54:07.728Z,7672.00
2019-05-12T14:55:07.790Z,7760.00
2019-05-12T14:56:07.763Z,7396.00
2019-05-12T14:57:07.787Z,7316.00
2019-05-12T14:58:09.143Z,7296.00
2019-05-12T14:59:07.817Z,7240.00
2019-05-12T15:00:11.391Z,8228.00
2019-05-12T15:01:07.844Z,7428.00
2019-05-12T15:02:07.842Z,7816.00
2019-05-12T15:03:13.002Z,12992.00
2019-05-12T15:04:07.877Z,11452.00
2019-05-12T15:05:10.789Z,11588.00
2019-05-12T15:06:07.896Z,9884.00
2019-05-12T15:07:10.048Z,12924.00
2019-05-12T15:08:07.940Z,12656.00
2019-05-12T15:09:11.532Z,12772.00
2019-05-12T15:10:08.799Z,12524.00
2019-05-12T15:11:07.993Z,12628.00
2019-05-12T15:12:07.983Z,12360.00
2019-05-12T15:13:08.020Z,12140.00
2019-05-12T15:14:08.028Z,12252.00
2019-05-12T15:15:09.213Z,10216.00
2019-05-12T15:16:08.061Z,9444.00
2019-05-12T15:17:08.061Z,6748.00
2019-05-12T15:18:09.943Z,6280.00
2019-05-12T15:19:09.766Z,5816.00
2019-05-12T15:20:10.576Z,5360.00
2019-05-12T15:21:08.157Z,4944.00
2019-05-12T15:22:11.757Z,4528.00
2019-05-12T15:23:08.163Z,4108.00
2019-05-12T15:24:13.944Z,3676.00
2019-05-12T15:25:08.183Z,3268.00
2019-05-12T15:26:09.535Z,2912.00
2019-05-12T15:27:08.213Z,2600.00
2019-05-12T15:28:08.229Z,2336.00
2019-05-12T15:29:13.390Z,2112.00
2019-05-12T15:30:19.120Z,1940.00
2019-05-12T15:31:08.261Z,1820.00
2019-05-12T15:32:08.336Z,1756.00
2019-05-12T15:33:08.286Z,1748.00
2019-05-12T15:34:08.297Z,1784.00
2019-05-12T15:35:08.312Z,1844.00
2019-05-12T15:36:08.331Z,1940.00
2019-05-12T15:37:08.340Z,2052.00
2019-05-12T15:38:09.432Z,2148.00
2019-05-12T15:39:08.363Z,2228.00
2019-05-12T15:40:08.367Z,2344.00
2019-05-12T15:41:10.793Z,2476.00
2019-05-12T15:42:08.405Z,2560.00
2019-05-12T15:43:09.309Z,2704.00
2019-05-12T15:44:08.414Z,2812.00
2019-05-12T15:45:13.798Z,2932.00
2019-05-12T15:46:08.438Z,3084.00
2019-05-12T15:47:08.466Z,3188.00
2019-05-12T15:48:08.462Z,3300.00
2019-05-12T15:49:09.046Z,3464.00
2019-05-12T15:50:08.483Z,3568.00
2019-05-12T15:51:08.891Z,3812.00
2019-05-12T15:52:08.499Z,3832.00
2019-05-12T15:53:15.945Z,3944.00
2019-05-12T15:54:11.599Z,4016.00
2019-05-12T15:55:08.531Z,4076.00
2019-05-12T15:56:15.008Z,4116.00
2019-05-12T15:57:08.559Z,4112.00
2019-05-12T15:58:08.565Z,4064.00
2019-05-12T15:59:08.576Z,3988.00
2019-05-12T16:00:08.589Z,3916.00
2019-05-12T16:01:08.599Z,3792.00
2019-05-12T16:02:14.470Z,3656.00
2019-05-12T16:03:08.621Z,3576.00
2019-05-12T16:04:11.728Z,3532.00
2019-05-12T16:05:08.638Z,3440.00
2019-05-12T16:06:11.799Z,3412.00
2019-05-12T16:07:08.663Z,3312.00
2019-05-12T16:08:08.667Z,3284.00
2019-05-12T16:09:08.682Z,3208.00
2019-05-12T16:10:08.692Z,3156.00
2019-05-12T16:11:08.699Z,3180.00
2019-05-12T16:12:18.988Z,3860.00
2019-05-12T16:13:08.784Z,3284.00
2019-05-12T16:14:08.731Z,3160.00
2019-05-12T16:15:14.894Z,3116.00
2019-05-12T16:16:08.769Z,3092.00
2019-05-12T16:17:08.762Z,3088.00
2019-05-12T16:18:10.232Z,3112.00
2019-05-12T16:19:08.781Z,3172.00
2019-05-12T16:20:08.792Z,3224.00
2019-05-12T16:21:09.489Z,3260.00
2019-05-12T16:22:08.823Z,3332.00
2019-05-12T16:23:08.831Z,3368.00
2019-05-12T16:24:11.241Z,3380.00
2019-05-12T16:25:08.837Z,3428.00
2019-05-12T16:26:12.526Z,3432.00
2019-05-12T16:27:08.868Z,3436.00
2019-05-12T16:28:15.538Z,3472.00
2019-05-12T16:29:08.879Z,3428.00
2019-05-12T16:30:08.893Z,3512.00
2019-05-12T16:31:08.945Z,3552.00
2019-05-12T16:32:22.370Z,3596.00
2019-05-12T16:33:14.370Z,3432.00
2019-05-12T16:34:08.927Z,3480.00
2019-05-12T16:35:08.944Z,3788.00
2019-05-12T16:36:11.493Z,3492.00
2019-05-12T16:37:08.962Z,3488.00
2019-05-12T16:38:17.329Z,3476.00
2019-05-12T16:39:08.977Z,3528.00
2019-05-12T16:40:08.994Z,5528.00
2019-05-12T16:42:10.610Z,4908.00
2019-05-12T16:43:09.017Z,5620.00
2019-05-12T16:44:17.635Z,4720.00
2019-05-12T16:45:10.354Z,5692.00
2019-05-12T16:46:09.058Z,5564.00
2019-05-12T16:47:09.054Z,5848.00
2019-05-12T16:48:18.841Z,3652.00
2019-05-12T16:49:09.084Z,3668.00
2019-05-12T16:50:15.226Z,3608.00
2019-05-12T16:51:09.095Z,3556.00
2019-05-12T16:52:09.109Z,3548.00
2019-05-12T16:53:13.385Z,3552.00
2019-05-12T16:54:09.153Z,3560.00
2019-05-12T16:55:09.143Z,3556.00
2019-05-12T16:56:09.148Z,3564.00
2019-05-12T16:57:13.142Z,3524.00
2019-05-12T16:58:09.163Z,3484.00
2019-05-12T16:59:17.093Z,3472.00
2019-05-12T17:00:09.185Z,3452.00
2019-05-12T17:01:09.198Z,3484.00
2019-05-12T17:02:10.002Z,3516.00
2019-05-12T17:03:09.223Z,3500.00
2019-05-12T17:04:09.221Z,3480.00
2019-05-12T17:05:15.687Z,3484.00
2019-05-12T17:06:09.240Z,3448.00
2019-05-12T17:07:09.676Z,3428.00
2019-05-12T17:08:09.261Z,3408.00
2019-05-12T17:09:09.258Z,3400.00
2019-05-12T17:10:16.266Z,3412.00
2019-05-12T17:11:24.248Z,3552.00
2019-05-12T17:12:09.287Z,3488.00
2019-05-12T17:13:13.695Z,3452.00
2019-05-12T17:14:09.308Z,3504.00
2019-05-12T17:15:09.317Z,3720.00
2019-05-12T17:16:09.320Z,3620.00
2019-05-12T17:17:10.873Z,3652.00
2019-05-12T17:18:09.350Z,3592.00
2019-05-12T17:19:10.610Z,4168.00
2019-05-12T17:20:09.365Z,3572.00
2019-05-12T17:21:09.392Z,3628.00
2019-05-12T17:22:09.379Z,3652.00
2019-05-12T17:23:09.398Z,4928.00
2019-05-12T17:24:09.405Z,3988.00
2019-05-12T17:25:10.558Z,4348.00
2019-05-12T17:26:09.426Z,5196.00
2019-05-12T17:27:17.965Z,4912.00
2019-05-12T17:28:09.454Z,5220.00
2019-05-12T17:29:09.463Z,5484.00
2019-05-12T17:30:09.456Z,5504.00
2019-05-12T17:31:09.466Z,5544.00
2019-05-12T17:32:09.475Z,5408.00
2019-05-12T17:33:15.935Z,5332.00
2019-05-12T17:34:10.421Z,5228.00
2019-05-12T17:35:10.205Z,5124.00
2019-05-12T17:36:12.493Z,5000.00
2019-05-12T17:37:09.527Z,4916.00
2019-05-12T17:38:13.932Z,4900.00
2019-05-12T17:39:09.554Z,4752.00
2019-05-12T17:40:14.657Z,4644.00
2019-05-12T17:41:09.566Z,4488.00
2019-05-12T17:42:13.076Z,4436.00
2019-05-12T17:43:11.945Z,4376.00
2019-05-12T17:44:09.606Z,4292.00
2019-05-12T17:45:14.995Z,4232.00
2019-05-12T17:46:12.374Z,4156.00
2019-05-12T17:47:12.879Z,4096.00
2019-05-12T17:48:09.629Z,4076.00
2019-05-12T17:49:09.640Z,4036.00
2019-05-12T17:50:10.473Z,4004.00
2019-05-12T17:51:09.658Z,3940.00
2019-05-12T17:52:12.996Z,3876.00
2019-05-12T17:53:09.680Z,3788.00
2019-05-12T17:54:13.426Z,3716.00
2019-05-12T17:55:10.918Z,3700.00
2019-05-12T17:56:09.712Z,3548.00
2019-05-12T17:57:14.984Z,3460.00
2019-05-12T17:58:09.719Z,3392.00
2019-05-12T17:59:14.926Z,3312.00
2019-05-12T18:00:10.895Z,3240.00
2019-05-12T18:01:09.750Z,3168.00
2019-05-12T18:02:15.041Z,3116.00
2019-05-12T18:03:20.481Z,3080.00
2019-05-12T18:04:09.783Z,2976.00
2019-05-12T18:05:12.286Z,2916.00
2019-05-12T18:06:09.816Z,2828.00
2019-05-12T18:07:13.210Z,2796.00
2019-05-12T18:08:09.815Z,2712.00
2019-05-12T18:09:15.872Z,2660.00
2019-05-12T18:10:09.840Z,2588.00
2019-05-12T18:11:11.339Z,2508.00
2019-05-12T18:12:09.864Z,2440.00
2019-05-12T18:13:17.191Z,2376.00
2019-05-12T18:14:09.867Z,2304.00
2019-05-12T18:15:09.874Z,2252.00
2019-05-12T18:16:11.682Z,2188.00
2019-05-12T18:17:09.901Z,2124.00
2019-05-12T18:18:09.905Z,2076.00
2019-05-12T18:19:15.337Z,2000.00
2019-05-12T18:20:09.923Z,1948.00
2019-05-12T18:21:14.788Z,1896.00
2019-05-12T18:22:09.937Z,1840.00
2019-05-12T18:23:09.945Z,1792.00
2019-05-12T18:24:11.906Z,1736.00
2019-05-12T18:25:09.986Z,1676.00
2019-05-12T18:26:14.432Z,1624.00
2019-05-12T18:27:09.983Z,1604.00
2019-05-12T18:28:10.002Z,1532.00
2019-05-12T18:29:10.008Z,1488.00
2019-05-12T18:30:10.030Z,1436.00
2019-05-12T18:31:10.014Z,1384.00
2019-05-12T18:32:10.035Z,1336.00
2019-05-12T18:33:10.031Z,1296.00
2019-05-12T18:34:10.058Z,1252.00
2019-05-12T18:35:10.049Z,1208.00
2019-05-12T18:36:10.058Z,1164.00
2019-05-12T18:37:10.073Z,1124.00
2019-05-12T18:38:18.105Z,1092.00
2019-05-12T18:39:14.305Z,1052.00
2019-05-12T18:40:10.090Z,1020.00
2019-05-12T18:41:10.100Z,980.00
2019-05-12T18:42:10.121Z,936.00
2019-05-12T18:43:10.127Z,896.00
2019-05-12T18:44:10.120Z,860.00
2019-05-12T18:45:12.544Z,820.00
2019-05-12T18:46:10.141Z,780.00
2019-05-12T18:47:10.149Z,748.00
2019-05-12T18:48:19.878Z,712.00
2019-05-12T18:49:12.764Z,680.00
2019-05-12T18:50:10.168Z,644.00
2019-05-12T18:51:12.275Z,616.00
2019-05-12T18:52:10.185Z,588.00
2019-05-12T18:53:14.826Z,560.00
2019-05-12T18:54:12.138Z,532.00
2019-05-12T18:55:10.219Z,504.00
2019-05-12T18:56:15.993Z,476.00
2019-05-12T18:57:10.240Z,452.00
2019-05-12T18:58:10.234Z,424.00
2019-05-12T18:59:11.909Z,400.00
2019-05-12T19:00:10.252Z,380.00
2019-05-12T19:01:10.259Z,356.00
2019-05-12T19:02:14.723Z,336.00
2019-05-12T19:03:10.276Z,312.00
2019-05-12T19:04:10.281Z,296.00
2019-05-12T19:05:15.398Z,272.00
2019-05-12T19:06:10.307Z,256.00
2019-05-12T19:07:10.309Z,240.00
2019-05-12T19:08:10.308Z,216.00
2019-05-12T19:09:10.323Z,204.00
2019-05-12T19:10:10.315Z,188.00
2019-05-12T19:11:19.920Z,176.00
2019-05-12T19:12:18.003Z,156.00
2019-05-12T19:13:10.385Z,144.00
2019-05-12T19:14:10.364Z,132.00
2019-05-12T19:15:15.872Z,120.00
2019-05-12T19:16:11.407Z,108.00
2019-05-12T19:17:10.563Z,100.00
2019-05-12T19:18:10.384Z,92.00
2019-05-12T19:19:18.362Z,80.00
2019-05-12T19:20:10.407Z,72.00
2019-05-12T19:21:15.671Z,68.00
2019-05-12T19:22:10.420Z,60.00
2019-05-12T19:23:10.428Z,56.00
2019-05-12T19:24:15.311Z,44.00
2019-05-12T19:25:10.436Z,44.00
2019-05-12T19:26:10.440Z,36.00
2019-05-12T19:27:15.822Z,32.00
2019-05-12T19:28:10.723Z,28.00
2019-05-12T19:29:10.468Z,24.00
2019-05-12T19:30:10.460Z,20.00
2019-05-12T19:31:10.492Z,20.00
2019-05-12T19:32:10.476Z,16.00
2019-05-12T19:33:11.022Z,12.00
2019-05-12T19:34:20.085Z,16.00
2019-05-12T19:35:15.795Z,12.00
2019-05-12T19:36:10.506Z,12.00
2019-05-12T19:37:10.525Z,8.00
2019-05-12T19:38:10.533Z,8.00
2019-05-12T19:39:10.537Z,8.00
2019-05-12T19:40:14.094Z,4.00
2019-05-12T19:41:10.556Z,4.00
2019-05-12T19:42:15.675Z,4.00
2019-05-12T19:43:10.570Z,4.00
2019-05-12T19:44:10.571Z,4.00
2019-05-12T19:45:16.232Z,4.00
2019-05-12T19:46:10.583Z,0.00
2019-05-12T19:47:10.610Z,4.00
2019-05-12T19:48:23.160Z,4.00
2019-05-12T19:49:10.602Z,0.00
2019-05-12T19:50:14.942Z,0.00
2019-05-12T19:51:21.928Z,4.00
2019-05-12T19:52:10.631Z,4.00
2019-05-12T19:53:10.644Z,4.00